Terminal Aerodrome Forecast
Issued by NWS

Home | Current Version | Previous Version | Text Only | Print | Product List | Glossary On
Versions: 1 2 3 4 5 6 7 8 9 10 11 12
000
FTUS46 KOTX 201723
TAFSFF
TAF
KSFF 201723Z 2018/2118 22015G20KT P6SM FEW060 SCT180
     FM210300 24010KT P6SM FEW200
     FM210600 VRB03KT P6SM FEW200
     FM211700 22006KT P6SM FEW200=

USA.gov is the U.S. government's official web portal to all federal, state and local government web resources and services.